Pagrindinis puslapis
METAR-TAF:

METAR-TAF

Oro uostai :

Alžyras, Alžyras

platuma: 36-43N, ilguma: 003-15E, Aukštis: 25 m

Dabartinis oras

Ataskaita buvo paskelbta 42 minutes, ne 11:30 UTC
Vėjas 12 kt iš Pietvakarių, svyruoja nuo Pietų/Pietvakarių ir Vakarų
Temperatūra 22°C
Drėgmė 31%
Slėgis 1019 hPa
Matomumas 10 km arba daugiau
nėra debesų žemiau 1500 m ir nėra kamuolinių lietaus debesų

METAR: DAAG 251130Z 23012KT 210V270 CAVOK 22/04 Q1019

Laikas: 13:12 (12:12 UTC)

Prognozė

Ataskaita buvo paskelbta 1 valandą ir 12 minutes, ne 11:00 UTC
Prognozė galioja nuo 25 metu 12 UTC su 26 metu 12 UTC
Vėjas 6 kt iš Pietvakarių
Matomumas 10 km arba daugiau
nėra debesų žemiau 1500 m ir nėra kamuolinių lietaus debesų
Tikimybė 40% :
Laikinai
nuo 26 metu 06 UTC su 26 metu 12 UTC
Mažai debesys ne aukštis 2300 ft, aukštai iškilę kamuoliniai debesys.
Tapsmas
nuo 26 metu 09 UTC su 26 metu 12 UTC
Vėjas 10 kt iš Vakarų/Šiaurės Vakarų

TAF: DAAG 251100Z 2512/2612 23006KT CAVOK PROB40 TEMPO 2606/2612 FEW023TCU BECMG 2609/2612 29010KT

Orai ataskaitas ir orų prognozės (METAR, TAF).

turimą stotys yra geltonos ir raudonos taškus žemėlapyje.

Perkelti pele per norėdami pamatyti stoties vardą.

Tada spustelėkite, norėdami matyti oro stebėjimo ir prognozės.

Norėdami pakeisti žemėlapį: spustelėkite ant žalios mygtukų su juodo kryžiaus žemyn,; žalią mygtuką su brūkšneliu, jei norite nutolinti; arba žalių rodyklių gretimoms žemėlapius.


METAR-TAF: